createdAt,value
2017-04-14T00:00:02.120Z,86.16
2017-04-14T00:15:02.412Z,87.62
2017-04-14T00:30:02.593Z,87.68
2017-04-14T00:45:02.873Z,88.93
2017-04-14T01:00:02.782Z,89.41
2017-04-14T01:15:02.904Z,89.78
2017-04-14T01:30:02.765Z,90.45
2017-04-14T01:45:02.628Z,90.52
2017-04-14T02:00:02.299Z,91.55
2017-04-14T02:15:02.762Z,92
2017-04-14T02:30:02.501Z,92.04
2017-04-14T02:45:02.170Z,91.77
2017-04-14T03:00:02.780Z,92
2017-04-14T03:15:02.723Z,92.4
2017-04-14T03:30:02.690Z,93.05
2017-04-14T03:45:02.376Z,92.93
2017-04-14T04:00:03.138Z,93.51
2017-04-14T04:15:02.707Z,94.28
2017-04-14T04:30:02.530Z,95.51
2017-04-14T04:45:02.545Z,94.71
2017-04-14T05:00:03.160Z,95.09
2017-04-14T05:15:02.450Z,95.19
2017-04-14T05:30:03.115Z,95.99
2017-04-14T05:45:03.182Z,96.15
2017-04-14T06:00:02.958Z,95.27
2017-04-14T06:15:02.977Z,94.12
2017-04-14T06:30:02.162Z,93.73
2017-04-14T06:45:02.453Z,92.61
2017-04-14T07:00:02.910Z,90.31
2017-04-14T07:15:02.363Z,88.14
2017-04-14T07:30:02.836Z,86.03
2017-04-14T07:45:03.043Z,81.28
2017-04-14T08:00:02.107Z,78.39
2017-04-14T08:15:02.731Z,78.09
2017-04-14T08:30:03.079Z,76.34
2017-04-14T08:45:02.975Z,70.85
2017-04-14T09:00:02.942Z,71.97
2017-04-14T09:15:02.321Z,70.27
2017-04-14T09:30:03.067Z,59.43
2017-04-14T09:45:02.802Z,52.93
2017-04-14T10:00:02.760Z,50.77
2017-04-14T10:15:02.790Z,52.09
2017-04-14T10:30:02.496Z,51.8
2017-04-14T10:45:02.313Z,53.28
2017-04-14T11:00:02.966Z,55.18
2017-04-14T11:15:02.787Z,56.3
2017-04-14T11:30:02.366Z,57.85
2017-04-14T11:45:03.220Z,58.43
2017-04-14T12:00:02.682Z,60.53
2017-04-14T12:15:02.681Z,61.82
2017-04-14T12:30:02.318Z,62.21
2017-04-14T12:45:02.208Z,63.05
2017-04-14T13:00:02.159Z,64.93
2017-04-14T13:15:02.115Z,65.57
2017-04-14T13:30:02.933Z,65.28
2017-04-14T13:45:02.050Z,64.67
2017-04-14T14:00:02.945Z,64.68
2017-04-14T14:15:03.095Z,65.78
2017-04-14T14:30:02.532Z,67.28
2017-04-14T14:45:02.971Z,69.63
2017-04-14T15:00:02.586Z,71
2017-04-14T15:15:02.092Z,71.74
2017-04-14T15:30:02.360Z,71.95
2017-04-14T15:45:02.267Z,71.28
2017-04-14T16:00:03.059Z,72.21
2017-04-14T16:15:02.754Z,72.4
2017-04-14T16:30:03.107Z,72.4
2017-04-14T16:45:02.588Z,72.11
2017-04-14T17:00:02.940Z,72.78
2017-04-14T17:15:02.517Z,74.04
2017-04-14T17:30:02.470Z,76.75
2017-04-14T17:45:02.605Z,78.33
2017-04-14T18:00:02.255Z,78.57
2017-04-14T18:15:03.144Z,77.55
2017-04-14T18:30:02.462Z,76.96
2017-04-14T18:45:02.666Z,77.33
2017-04-14T19:00:02.762Z,77.01
2017-04-14T19:15:02.485Z,77.95
2017-04-14T19:30:02.351Z,78.53
2017-04-14T19:45:02.663Z,79
2017-04-14T20:00:02.842Z,79.71
2017-04-14T20:15:03.235Z,80.23
2017-04-14T20:30:02.739Z,80.63
2017-04-14T20:45:03.218Z,80.73
2017-04-14T21:00:02.801Z,81.76
2017-04-14T21:15:02.672Z,81.76
2017-04-14T21:30:02.444Z,81.23
2017-04-14T21:45:03.024Z,81.44
2017-04-14T22:00:02.273Z,81.68
2017-04-14T22:15:02.726Z,81.21
2017-04-14T22:30:02.258Z,82.87
2017-04-14T22:45:03.040Z,82.9
2017-04-14T23:00:03.031Z,84.15
2017-04-14T23:15:02.751Z,83.59
2017-04-14T23:30:03.216Z,84.47
2017-04-14T23:45:02.195Z,84.69
